Lucas, KY (42156)

1:42 PM CDT on July 23, 2014 (GMT -0500)
Scout Reservation (KKYTEMPL1) Elev 780 ft | 36.90 °N, 85.88 °W | Change Station

Current weather conditions updated 5 seconds ago

Partly Cloudy
Partly Cloudy
90.3 °F
Feels Like 107 °F
N
0.3
Wind Variable Wind from South
Gusts 2.2 mph

Today is forecast to be nearly the same temperature as yesterday. A few thunderstorms possible.

Today
High -- | Low -- °F
--% Chance of Precip.
Yesterday
High -- | Low -- °F
Precip. -- in
5:42 AM 7:58 PM
Waning Crescent, 9% visible
Pressure 29.99 in
Visibility 10.0 miles
Clouds Clear
Heat Index 107 °F
Dew Point 79 °F
Humidity 70%
Rainfall 0.00 in
Snow Depth Not available.
UV 12 out of 12
Pollen 4.00 out of 12
Air Quality Not available.
Flu Activity Not available.
METAR KGLW 231835Z AUTO 21007KT 10SM CLR 33/20 A2999 RMK AO2 T03250196

More Conditions Fewer Conditions

Pressure 29.99 in
Visibility 10.0 miles
Clouds Clear
Heat Index 107 °F
Dew Point 79 °F
Humidity 70%
Rainfall 0.00 in
Snow Depth Not available.
UV 12 out of 12
Pollen 4.00 out of 12
Air Quality Not available.
Flu Activity Not available.
METAR KGLW 231835Z AUTO 21007KT 10SM CLR 33/20 A2999 RMK AO2 T03250196

More Conditions Fewer Conditions

10-Day Weather Forecast

Almanac

Astronomy

Jul. 23, 2014 Rise Set
Actual Time 5:42 AM CDT 7:58 PM CDT
Civil Twilight 5:13 AM CDT 8:27 PM CDT
Nautical Twilight 4:37 AM CDT 9:03 PM CDT
Astronomical Twilight 3:57 AM CDT 9:42 PM CDT
Moon 3:00 AM CDT 5:27 PM CDT
Length of Visible Light 15h 14m
Length of Day
14h 15m
Tomorrow will be 1m 31s shorter.
Waning Crescent, 9% of the Moon is Illuminated
Today
Waning Crescent
Jul 26
New
Aug 3
First Quarter
Aug 10
Full
Aug 17
Last Quarter

Today's Extremes

State Highs State Lows

Community

WunderPhotos

Upload Photos

1,736,706 photos uploaded!

Nearby

Snow Depth

Station Depth Elevation
No new snow has been reported.

Earthquake Activity

City Distance Mag. Time & Date
No recent earthquake activity has been reported nearby.
Minimum magnitude displayed is 2.5.

Coastal Water Temperatures

Place Temperature
No Stations Reporting

Nearby Weather Stations

Station Location Temp. Heat Index Dew Point Humidity Wind Precip. Elev Updated Type
Scout Reservation, Temple Hill, KY 90.3 °F 107 °F 79 °F 70% South  at  0.3 mph 0.00 in / hr 780 ft 1:42 PM CDT Rapid Fire
Park City Glasgow Rd., Glasgow, KY 92.7 °F 104 °F 75 °F 56% SSW  at  2.0 mph 0.00 in / hr 736 ft 1:42 PM CDT Rapid Fire
Pumpkintown, Red Boiling Springs, TN 87.3 °F 97 °F 75 °F 67% WSW  at  2.0 mph 0.00 in / hr 902 ft 2:29 PM EDT Normal
Plano, Bowling Green, KY 91.7 °F 109 °F 79 °F 67% South  at  4.0 mph 0.00 in / hr 630 ft 1:42 PM CDT Rapid Fire
Cave City, KY 91.5 °F 104 °F 76 °F 61% SW  at  3.0 mph 0.00 in / hr 695 ft 1:42 PM CDT Normal
MesoWest MAMMOTH CAVE , Cub Run, KY 88 °F 96 °F 74 °F 62% South  at  1 mph 0.00 in / hr 799 ft 12:00 PM CDT MADIS

Show More Stations Show Fewer Stations